sensor_id;sensor_type;location;lat;lon;timestamp;P1;durP1;ratioP1;P2;durP2;ratioP2
22318;SDS011;11327;52.334;9.506;2024-02-26T00:01:24;5.80;;;4.22;;
22318;SDS011;11327;52.334;9.506;2024-02-26T00:04:45;5.87;;;4.28;;
22318;SDS011;11327;52.334;9.506;2024-02-26T00:08:06;5.95;;;4.33;;
22318;SDS011;11327;52.334;9.506;2024-02-26T00:11:27;7.03;;;4.60;;
22318;SDS011;11327;52.334;9.506;2024-02-26T00:14:47;6.08;;;4.47;;
22318;SDS011;11327;52.334;9.506;2024-02-26T00:18:09;6.28;;;4.03;;
22318;SDS011;11327;52.334;9.506;2024-02-26T00:21:30;5.78;;;4.55;;
22318;SDS011;11327;52.334;9.506;2024-02-26T00:24:51;5.47;;;4.37;;
22318;SDS011;11327;52.334;9.506;2024-02-26T00:28:11;4.78;;;3.85;;
22318;SDS011;11327;52.334;9.506;2024-02-26T00:31:33;4.72;;;3.58;;
22318;SDS011;11327;52.334;9.506;2024-02-26T00:34:54;5.80;;;3.60;;
22318;SDS011;11327;52.334;9.506;2024-02-26T00:38:15;4.35;;;3.60;;
22318;SDS011;11327;52.334;9.506;2024-02-26T00:41:41;4.37;;;3.33;;
22318;SDS011;11327;52.334;9.506;2024-02-26T00:48:23;4.47;;;3.02;;
22318;SDS011;11327;52.334;9.506;2024-02-26T00:51:45;4.50;;;3.33;;
22318;SDS011;11327;52.334;9.506;2024-02-26T00:55:06;4.17;;;3.20;;
22318;SDS011;11327;52.334;9.506;2024-02-26T00:58:28;4.12;;;3.25;;
22318;SDS011;11327;52.334;9.506;2024-02-26T01:01:48;3.75;;;3.02;;
22318;SDS011;11327;52.334;9.506;2024-02-26T01:05:09;4.62;;;3.40;;
22318;SDS011;11327;52.334;9.506;2024-02-26T01:08:30;7.65;;;3.92;;
22318;SDS011;11327;52.334;9.506;2024-02-26T01:11:52;6.20;;;4.00;;
22318;SDS011;11327;52.334;9.506;2024-02-26T01:15:12;5.80;;;3.70;;
22318;SDS011;11327;52.334;9.506;2024-02-26T01:18:33;4.92;;;3.70;;
22318;SDS011;11327;52.334;9.506;2024-02-26T01:21:54;4.40;;;3.52;;
22318;SDS011;11327;52.334;9.506;2024-02-26T01:25:14;4.00;;;3.33;;
22318;SDS011;11327;52.334;9.506;2024-02-26T01:28:36;6.80;;;4.55;;
22318;SDS011;11327;52.334;9.506;2024-02-26T01:31:56;6.80;;;4.50;;
22318;SDS011;11327;52.334;9.506;2024-02-26T01:35:17;6.28;;;4.05;;
22318;SDS011;11327;52.334;9.506;2024-02-26T01:38:38;6.03;;;3.60;;
22318;SDS011;11327;52.334;9.506;2024-02-26T01:41:58;6.55;;;3.72;;
22318;SDS011;11327;52.334;9.506;2024-02-26T01:45:19;4.60;;;3.87;;
22318;SDS011;11327;52.334;9.506;2024-02-26T01:48:45;4.95;;;3.27;;
22318;SDS011;11327;52.334;9.506;2024-02-26T01:52:07;4.45;;;3.30;;
22318;SDS011;11327;52.334;9.506;2024-02-26T01:55:30;4.95;;;3.22;;
22318;SDS011;11327;52.334;9.506;2024-02-26T01:58:50;4.05;;;2.95;;
22318;SDS011;11327;52.334;9.506;2024-02-26T02:02:11;4.75;;;3.42;;
22318;SDS011;11327;52.334;9.506;2024-02-26T02:05:35;4.58;;;3.15;;
22318;SDS011;11327;52.334;9.506;2024-02-26T02:08:59;3.72;;;3.10;;
22318;SDS011;11327;52.334;9.506;2024-02-26T02:12:21;4.85;;;3.58;;
22318;SDS011;11327;52.334;9.506;2024-02-26T02:15:42;5.22;;;3.55;;
22318;SDS011;11327;52.334;9.506;2024-02-26T02:19:03;5.72;;;4.00;;
22318;SDS011;11327;52.334;9.506;2024-02-26T02:22:24;5.40;;;3.90;;
22318;SDS011;11327;52.334;9.506;2024-02-26T02:25:44;5.00;;;3.87;;
22318;SDS011;11327;52.334;9.506;2024-02-26T02:29:05;4.90;;;3.92;;
22318;SDS011;11327;52.334;9.506;2024-02-26T02:32:27;6.58;;;4.00;;
22318;SDS011;11327;52.334;9.506;2024-02-26T02:35:49;4.83;;;4.12;;
22318;SDS011;11327;52.334;9.506;2024-02-26T02:39:11;5.40;;;4.25;;
22318;SDS011;11327;52.334;9.506;2024-02-26T02:42:31;5.62;;;4.20;;
22318;SDS011;11327;52.334;9.506;2024-02-26T02:45:52;5.78;;;4.50;;
22318;SDS011;11327;52.334;9.506;2024-02-26T02:49:13;5.42;;;4.10;;
22318;SDS011;11327;52.334;9.506;2024-02-26T02:52:34;5.15;;;4.25;;
22318;SDS011;11327;52.334;9.506;2024-02-26T02:55:55;5.40;;;4.40;;
22318;SDS011;11327;52.334;9.506;2024-02-26T02:59:16;5.67;;;4.90;;
22318;SDS011;11327;52.334;9.506;2024-02-26T03:02:36;5.78;;;4.70;;
22318;SDS011;11327;52.334;9.506;2024-02-26T03:05:57;5.85;;;5.03;;
22318;SDS011;11327;52.334;9.506;2024-02-26T03:09:18;6.78;;;5.03;;
22318;SDS011;11327;52.334;9.506;2024-02-26T03:12:39;6.85;;;5.47;;
22318;SDS011;11327;52.334;9.506;2024-02-26T03:16:04;9.15;;;6.70;;
22318;SDS011;11327;52.334;9.506;2024-02-26T03:19:26;8.45;;;6.80;;
22318;SDS011;11327;52.334;9.506;2024-02-26T03:22:46;8.48;;;7.08;;
22318;SDS011;11327;52.334;9.506;2024-02-26T03:26:07;8.90;;;6.83;;
22318;SDS011;11327;52.334;9.506;2024-02-26T03:29:29;7.85;;;7.00;;
22318;SDS011;11327;52.334;9.506;2024-02-26T03:32:49;7.40;;;6.42;;
22318;SDS011;11327;52.334;9.506;2024-02-26T03:36:10;7.33;;;6.50;;
22318;SDS011;11327;52.334;9.506;2024-02-26T03:39:31;8.33;;;6.33;;
22318;SDS011;11327;52.334;9.506;2024-02-26T03:42:52;7.00;;;6.22;;
22318;SDS011;11327;52.334;9.506;2024-02-26T03:46:14;7.85;;;6.08;;
22318;SDS011;11327;52.334;9.506;2024-02-26T03:49:35;7.97;;;6.25;;
22318;SDS011;11327;52.334;9.506;2024-02-26T03:52:55;8.90;;;6.15;;
22318;SDS011;11327;52.334;9.506;2024-02-26T03:56:17;6.75;;;5.80;;
22318;SDS011;11327;52.334;9.506;2024-02-26T03:59:38;7.12;;;5.78;;
22318;SDS011;11327;52.334;9.506;2024-02-26T04:03:00;6.90;;;5.45;;
22318;SDS011;11327;52.334;9.506;2024-02-26T04:06:20;7.97;;;5.62;;
22318;SDS011;11327;52.334;9.506;2024-02-26T04:09:41;8.20;;;6.15;;
22318;SDS011;11327;52.334;9.506;2024-02-26T04:13:02;7.30;;;6.08;;
22318;SDS011;11327;52.334;9.506;2024-02-26T04:16:24;8.05;;;6.15;;
22318;SDS011;11327;52.334;9.506;2024-02-26T04:19:44;8.13;;;6.65;;
22318;SDS011;11327;52.334;9.506;2024-02-26T04:23:05;7.67;;;6.60;;
22318;SDS011;11327;52.334;9.506;2024-02-26T04:26:26;9.20;;;6.80;;
22318;SDS011;11327;52.334;9.506;2024-02-26T04:29:47;9.00;;;6.40;;
22318;SDS011;11327;52.334;9.506;2024-02-26T04:33:07;23.80;;;16.50;;
22318;SDS011;11327;52.334;9.506;2024-02-26T04:36:28;23.15;;;17.95;;
22318;SDS011;11327;52.334;9.506;2024-02-26T04:39:49;16.25;;;12.93;;
22318;SDS011;11327;52.334;9.506;2024-02-26T04:43:10;8.95;;;7.35;;
22318;SDS011;11327;52.334;9.506;2024-02-26T04:46:30;9.55;;;7.10;;
22318;SDS011;11327;52.334;9.506;2024-02-26T04:49:51;8.33;;;6.37;;
22318;SDS011;11327;52.334;9.506;2024-02-26T04:53:12;8.20;;;6.28;;
22318;SDS011;11327;52.334;9.506;2024-02-26T04:56:33;7.40;;;6.08;;
22318;SDS011;11327;52.334;9.506;2024-02-26T04:59:53;6.70;;;5.60;;
22318;SDS011;11327;52.334;9.506;2024-02-26T05:03:14;7.67;;;6.03;;
22318;SDS011;11327;52.334;9.506;2024-02-26T05:06:36;7.70;;;6.08;;
22318;SDS011;11327;52.334;9.506;2024-02-26T05:09:57;6.80;;;5.83;;
22318;SDS011;11327;52.334;9.506;2024-02-26T05:13:20;7.15;;;6.12;;
22318;SDS011;11327;52.334;9.506;2024-02-26T05:16:41;8.58;;;6.42;;
22318;SDS011;11327;52.334;9.506;2024-02-26T05:20:02;9.08;;;6.90;;
22318;SDS011;11327;52.334;9.506;2024-02-26T05:23:22;8.40;;;6.53;;
22318;SDS011;11327;52.334;9.506;2024-02-26T05:26:44;8.35;;;6.80;;
22318;SDS011;11327;52.334;9.506;2024-02-26T05:30:06;8.68;;;6.87;;
22318;SDS011;11327;52.334;9.506;2024-02-26T05:33:27;7.70;;;6.83;;
22318;SDS011;11327;52.334;9.506;2024-02-26T05:36:48;8.35;;;6.70;;
22318;SDS011;11327;52.334;9.506;2024-02-26T05:40:09;10.15;;;7.00;;
22318;SDS011;11327;52.334;9.506;2024-02-26T05:43:30;11.75;;;7.83;;
22318;SDS011;11327;52.334;9.506;2024-02-26T05:46:51;9.88;;;7.72;;
22318;SDS011;11327;52.334;9.506;2024-02-26T05:50:11;9.65;;;7.53;;
22318;SDS011;11327;52.334;9.506;2024-02-26T05:53:32;10.50;;;8.00;;
22318;SDS011;11327;52.334;9.506;2024-02-26T05:56:54;9.28;;;8.10;;
22318;SDS011;11327;52.334;9.506;2024-02-26T06:00:15;9.85;;;8.15;;
22318;SDS011;11327;52.334;9.506;2024-02-26T06:03:36;10.70;;;8.03;;
22318;SDS011;11327;52.334;9.506;2024-02-26T06:06:56;10.15;;;8.08;;
22318;SDS011;11327;52.334;9.506;2024-02-26T06:10:17;10.18;;;7.90;;
22318;SDS011;11327;52.334;9.506;2024-02-26T06:13:40;9.85;;;7.80;;
22318;SDS011;11327;52.334;9.506;2024-02-26T06:17:01;11.40;;;8.43;;
22318;SDS011;11327;52.334;9.506;2024-02-26T06:20:22;10.35;;;8.40;;
22318;SDS011;11327;52.334;9.506;2024-02-26T06:23:42;11.35;;;8.95;;
22318;SDS011;11327;52.334;9.506;2024-02-26T06:27:03;9.85;;;7.83;;
22318;SDS011;11327;52.334;9.506;2024-02-26T06:30:24;13.20;;;8.55;;
22318;SDS011;11327;52.334;9.506;2024-02-26T06:33:45;9.65;;;7.50;;
22318;SDS011;11327;52.334;9.506;2024-02-26T06:37:05;10.03;;;7.22;;
22318;SDS011;11327;52.334;9.506;2024-02-26T06:40:26;9.63;;;7.37;;
22318;SDS011;11327;52.334;9.506;2024-02-26T06:43:47;8.55;;;7.17;;
22318;SDS011;11327;52.334;9.506;2024-02-26T06:47:07;8.88;;;7.50;;
22318;SDS011;11327;52.334;9.506;2024-02-26T06:50:28;10.05;;;7.55;;
22318;SDS011;11327;52.334;9.506;2024-02-26T06:53:49;9.35;;;7.85;;
22318;SDS011;11327;52.334;9.506;2024-02-26T06:57:10;10.85;;;7.42;;
22318;SDS011;11327;52.334;9.506;2024-02-26T07:00:30;10.43;;;7.65;;
22318;SDS011;11327;52.334;9.506;2024-02-26T07:03:51;9.60;;;7.45;;
22318;SDS011;11327;52.334;9.506;2024-02-26T07:07:12;9.63;;;7.62;;
22318;SDS011;11327;52.334;9.506;2024-02-26T07:10:34;9.78;;;7.72;;
22318;SDS011;11327;52.334;9.506;2024-02-26T07:13:55;12.33;;;8.13;;
22318;SDS011;11327;52.334;9.506;2024-02-26T07:17:16;10.18;;;8.10;;
22318;SDS011;11327;52.334;9.506;2024-02-26T07:20:37;9.88;;;7.90;;
22318;SDS011;11327;52.334;9.506;2024-02-26T07:23:58;8.83;;;7.03;;
22318;SDS011;11327;52.334;9.506;2024-02-26T07:27:18;10.55;;;8.00;;
22318;SDS011;11327;52.334;9.506;2024-02-26T07:30:39;9.93;;;7.53;;
22318;SDS011;11327;52.334;9.506;2024-02-26T07:34:00;9.78;;;7.30;;
22318;SDS011;11327;52.334;9.506;2024-02-26T07:37:20;9.13;;;7.10;;
22318;SDS011;11327;52.334;9.506;2024-02-26T07:40:41;8.85;;;6.90;;
22318;SDS011;11327;52.334;9.506;2024-02-26T07:44:02;9.80;;;6.78;;
22318;SDS011;11327;52.334;9.506;2024-02-26T07:47:22;8.93;;;6.83;;
22318;SDS011;11327;52.334;9.506;2024-02-26T07:50:43;8.78;;;6.58;;
22318;SDS011;11327;52.334;9.506;2024-02-26T07:54:04;7.67;;;6.50;;
22318;SDS011;11327;52.334;9.506;2024-02-26T07:57:25;9.05;;;6.78;;
22318;SDS011;11327;52.334;9.506;2024-02-26T08:00:45;8.98;;;6.47;;
22318;SDS011;11327;52.334;9.506;2024-02-26T08:04:06;7.92;;;5.83;;
22318;SDS011;11327;52.334;9.506;2024-02-26T08:07:27;7.97;;;6.33;;
22318;SDS011;11327;52.334;9.506;2024-02-26T08:10:48;9.90;;;6.15;;
22318;SDS011;11327;52.334;9.506;2024-02-26T08:14:09;8.63;;;6.10;;
22318;SDS011;11327;52.334;9.506;2024-02-26T08:17:30;8.85;;;6.08;;
22318;SDS011;11327;52.334;9.506;2024-02-26T08:20:51;8.23;;;6.10;;
22318;SDS011;11327;52.334;9.506;2024-02-26T08:24:12;9.63;;;6.28;;
22318;SDS011;11327;52.334;9.506;2024-02-26T08:27:32;9.60;;;6.75;;
22318;SDS011;11327;52.334;9.506;2024-02-26T08:30:53;9.08;;;6.35;;
22318;SDS011;11327;52.334;9.506;2024-02-26T08:34:14;8.75;;;6.00;;
22318;SDS011;11327;52.334;9.506;2024-02-26T08:37:35;7.55;;;6.17;;
22318;SDS011;11327;52.334;9.506;2024-02-26T08:40:55;8.13;;;5.85;;
22318;SDS011;11327;52.334;9.506;2024-02-26T08:44:16;7.30;;;5.40;;
22318;SDS011;11327;52.334;9.506;2024-02-26T08:47:37;6.97;;;5.70;;
22318;SDS011;11327;52.334;9.506;2024-02-26T08:50:57;6.97;;;4.72;;
22318;SDS011;11327;52.334;9.506;2024-02-26T08:54:18;6.45;;;4.85;;
22318;SDS011;11327;52.334;9.506;2024-02-26T08:57:39;6.92;;;5.55;;
22318;SDS011;11327;52.334;9.506;2024-02-26T09:00:59;6.55;;;5.40;;
22318;SDS011;11327;52.334;9.506;2024-02-26T09:04:20;7.95;;;5.78;;
22318;SDS011;11327;52.334;9.506;2024-02-26T09:07:41;9.05;;;6.42;;
22318;SDS011;11327;52.334;9.506;2024-02-26T09:11:02;11.03;;;7.75;;
22318;SDS011;11327;52.334;9.506;2024-02-26T09:14:23;8.08;;;6.47;;
22318;SDS011;11327;52.334;9.506;2024-02-26T09:17:44;10.50;;;6.67;;
22318;SDS011;11327;52.334;9.506;2024-02-26T09:21:06;8.73;;;6.75;;
22318;SDS011;11327;52.334;9.506;2024-02-26T09:24:27;8.65;;;6.58;;
22318;SDS011;11327;52.334;9.506;2024-02-26T09:27:47;9.20;;;6.65;;
22318;SDS011;11327;52.334;9.506;2024-02-26T09:31:08;8.55;;;6.60;;
22318;SDS011;11327;52.334;9.506;2024-02-26T09:34:29;8.88;;;6.83;;
22318;SDS011;11327;52.334;9.506;2024-02-26T09:37:50;9.33;;;6.60;;
22318;SDS011;11327;52.334;9.506;2024-02-26T09:41:13;9.55;;;7.20;;
22318;SDS011;11327;52.334;9.506;2024-02-26T09:44:34;9.65;;;7.08;;
22318;SDS011;11327;52.334;9.506;2024-02-26T09:47:58;9.50;;;7.28;;
22318;SDS011;11327;52.334;9.506;2024-02-26T09:51:19;9.35;;;7.45;;
22318;SDS011;11327;52.334;9.506;2024-02-26T09:54:48;9.28;;;7.03;;
22318;SDS011;11327;52.334;9.506;2024-02-26T09:58:09;10.23;;;7.60;;
22318;SDS011;11327;52.334;9.506;2024-02-26T10:01:30;9.38;;;7.37;;
22318;SDS011;11327;52.334;9.506;2024-02-26T10:04:53;13.20;;;7.72;;
22318;SDS011;11327;52.334;9.506;2024-02-26T10:08:16;10.00;;;7.55;;
22318;SDS011;11327;52.334;9.506;2024-02-26T10:11:39;9.65;;;7.53;;
22318;SDS011;11327;52.334;9.506;2024-02-26T10:15:02;12.10;;;7.83;;
22318;SDS011;11327;52.334;9.506;2024-02-26T10:18:23;10.78;;;7.10;;
22318;SDS011;11327;52.334;9.506;2024-02-26T10:21:44;8.90;;;7.35;;
22318;SDS011;11327;52.334;9.506;2024-02-26T10:25:05;9.78;;;7.33;;
22318;SDS011;11327;52.334;9.506;2024-02-26T10:28:26;8.13;;;6.75;;
22318;SDS011;11327;52.334;9.506;2024-02-26T10:31:53;9.50;;;7.05;;
22318;SDS011;11327;52.334;9.506;2024-02-26T10:35:14;10.40;;;7.05;;
22318;SDS011;11327;52.334;9.506;2024-02-26T10:38:36;13.62;;;7.10;;
22318;SDS011;11327;52.334;9.506;2024-02-26T10:41:58;9.58;;;7.03;;
22318;SDS011;11327;52.334;9.506;2024-02-26T10:45:22;9.23;;;7.42;;
22318;SDS011;11327;52.334;9.506;2024-02-26T10:48:49;9.55;;;7.58;;
22318;SDS011;11327;52.334;9.506;2024-02-26T10:52:12;10.50;;;7.58;;
22318;SDS011;11327;52.334;9.506;2024-02-26T10:55:33;10.50;;;7.70;;
22318;SDS011;11327;52.334;9.506;2024-02-26T10:58:57;8.90;;;6.80;;
22318;SDS011;11327;52.334;9.506;2024-02-26T11:02:19;10.10;;;7.35;;
22318;SDS011;11327;52.334;9.506;2024-02-26T11:05:41;9.85;;;7.17;;
22318;SDS011;11327;52.334;9.506;2024-02-26T11:09:03;8.50;;;6.60;;
22318;SDS011;11327;52.334;9.506;2024-02-26T11:12:27;9.60;;;7.25;;
22318;SDS011;11327;52.334;9.506;2024-02-26T11:15:49;7.33;;;6.10;;
22318;SDS011;11327;52.334;9.506;2024-02-26T11:19:10;7.62;;;6.28;;
22318;SDS011;11327;52.334;9.506;2024-02-26T11:22:34;8.18;;;6.25;;
22318;SDS011;11327;52.334;9.506;2024-02-26T11:25:55;7.97;;;6.25;;
22318;SDS011;11327;52.334;9.506;2024-02-26T11:29:21;5.72;;;5.08;;
22318;SDS011;11327;52.334;9.506;2024-02-26T11:32:46;6.22;;;4.35;;
22318;SDS011;11327;52.334;9.506;2024-02-26T11:36:08;5.22;;;3.50;;
22318;SDS011;11327;52.334;9.506;2024-02-26T11:39:31;4.53;;;3.25;;
22318;SDS011;11327;52.334;9.506;2024-02-26T11:42:55;4.45;;;3.08;;
22318;SDS011;11327;52.334;9.506;2024-02-26T11:46:29;3.47;;;3.00;;
22318;SDS011;11327;52.334;9.506;2024-02-26T11:49:51;4.35;;;3.20;;
22318;SDS011;11327;52.334;9.506;2024-02-26T11:53:25;4.15;;;3.33;;
22318;SDS011;11327;52.334;9.506;2024-02-26T11:56:48;3.80;;;3.12;;
22318;SDS011;11327;52.334;9.506;2024-02-26T12:00:11;5.62;;;3.47;;
22318;SDS011;11327;52.334;9.506;2024-02-26T12:03:33;4.28;;;3.35;;
22318;SDS011;11327;52.334;9.506;2024-02-26T12:06:55;4.67;;;3.33;;
22318;SDS011;11327;52.334;9.506;2024-02-26T12:13:48;4.17;;;3.55;;
22318;SDS011;11327;52.334;9.506;2024-02-26T12:17:20;3.87;;;3.37;;
22318;SDS011;11327;52.334;9.506;2024-02-26T12:20:41;4.75;;;3.58;;
22318;SDS011;11327;52.334;9.506;2024-02-26T12:24:10;4.20;;;3.12;;
22318;SDS011;11327;52.334;9.506;2024-02-26T12:27:33;4.58;;;3.08;;
22318;SDS011;11327;52.334;9.506;2024-02-26T12:30:54;4.17;;;3.20;;
22318;SDS011;11327;52.334;9.506;2024-02-26T12:34:15;5.30;;;3.70;;
22318;SDS011;11327;52.334;9.506;2024-02-26T12:37:37;4.08;;;3.37;;
22318;SDS011;11327;52.334;9.506;2024-02-26T12:40:59;4.58;;;3.25;;
22318;SDS011;11327;52.334;9.506;2024-02-26T12:44:26;5.20;;;3.40;;
22318;SDS011;11327;52.334;9.506;2024-02-26T12:47:47;4.10;;;3.70;;
22318;SDS011;11327;52.334;9.506;2024-02-26T12:51:09;4.28;;;3.45;;
22318;SDS011;11327;52.334;9.506;2024-02-26T12:54:32;7.35;;;5.08;;
22318;SDS011;11327;52.334;9.506;2024-02-26T12:57:54;5.05;;;3.83;;
22318;SDS011;11327;52.334;9.506;2024-02-26T13:01:16;5.97;;;4.08;;
22318;SDS011;11327;52.334;9.506;2024-02-26T13:04:40;4.42;;;3.42;;
22318;SDS011;11327;52.334;9.506;2024-02-26T13:08:01;4.20;;;3.10;;
22318;SDS011;11327;52.334;9.506;2024-02-26T13:11:22;5.65;;;3.60;;
22318;SDS011;11327;52.334;9.506;2024-02-26T13:14:42;4.17;;;3.40;;
22318;SDS011;11327;52.334;9.506;2024-02-26T13:18:10;5.05;;;3.72;;
22318;SDS011;11327;52.334;9.506;2024-02-26T13:21:32;4.08;;;3.30;;
22318;SDS011;11327;52.334;9.506;2024-02-26T13:24:54;4.40;;;3.50;;
22318;SDS011;11327;52.334;9.506;2024-02-26T13:28:16;6.08;;;4.03;;
22318;SDS011;11327;52.334;9.506;2024-02-26T13:31:38;4.12;;;3.55;;
22318;SDS011;11327;52.334;9.506;2024-02-26T13:35:13;4.12;;;3.37;;
22318;SDS011;11327;52.334;9.506;2024-02-26T13:38:34;4.25;;;3.85;;
22318;SDS011;11327;52.334;9.506;2024-02-26T13:41:55;6.67;;;4.15;;
22318;SDS011;11327;52.334;9.506;2024-02-26T13:45:17;6.22;;;3.92;;
22318;SDS011;11327;52.334;9.506;2024-02-26T13:48:38;4.85;;;3.50;;
22318;SDS011;11327;52.334;9.506;2024-02-26T13:51:58;5.15;;;4.10;;
22318;SDS011;11327;52.334;9.506;2024-02-26T13:55:19;4.65;;;3.50;;
22318;SDS011;11327;52.334;9.506;2024-02-26T13:58:41;3.85;;;3.37;;
22318;SDS011;11327;52.334;9.506;2024-02-26T14:02:02;4.55;;;3.62;;
22318;SDS011;11327;52.334;9.506;2024-02-26T14:05:24;6.25;;;5.05;;
22318;SDS011;11327;52.334;9.506;2024-02-26T14:08:44;5.08;;;3.75;;
22318;SDS011;11327;52.334;9.506;2024-02-26T14:12:05;7.70;;;3.92;;
22318;SDS011;11327;52.334;9.506;2024-02-26T14:15:27;4.28;;;3.40;;
22318;SDS011;11327;52.334;9.506;2024-02-26T14:18:49;4.70;;;3.83;;
22318;SDS011;11327;52.334;9.506;2024-02-26T14:22:13;4.37;;;3.37;;
22318;SDS011;11327;52.334;9.506;2024-02-26T14:25:34;4.78;;;3.70;;
22318;SDS011;11327;52.334;9.506;2024-02-26T14:28:55;5.75;;;2.90;;
22318;SDS011;11327;52.334;9.506;2024-02-26T14:32:16;5.33;;;3.10;;
22318;SDS011;11327;52.334;9.506;2024-02-26T14:35:38;4.87;;;3.00;;
22318;SDS011;11327;52.334;9.506;2024-02-26T14:38:58;4.20;;;2.95;;
22318;SDS011;11327;52.334;9.506;2024-02-26T14:42:19;4.28;;;3.15;;
22318;SDS011;11327;52.334;9.506;2024-02-26T14:45:40;3.95;;;2.80;;
22318;SDS011;11327;52.334;9.506;2024-02-26T14:49:01;4.08;;;2.83;;
22318;SDS011;11327;52.334;9.506;2024-02-26T14:52:21;4.72;;;2.90;;
22318;SDS011;11327;52.334;9.506;2024-02-26T14:55:42;3.20;;;2.50;;
22318;SDS011;11327;52.334;9.506;2024-02-26T14:59:03;3.25;;;2.22;;
22318;SDS011;11327;52.334;9.506;2024-02-26T15:02:24;4.37;;;2.83;;
22318;SDS011;11327;52.334;9.506;2024-02-26T15:05:44;3.52;;;2.40;;
22318;SDS011;11327;52.334;9.506;2024-02-26T15:09:06;3.83;;;2.70;;
22318;SDS011;11327;52.334;9.506;2024-02-26T15:12:27;4.05;;;2.50;;
22318;SDS011;11327;52.334;9.506;2024-02-26T15:15:48;2.80;;;2.12;;
22318;SDS011;11327;52.334;9.506;2024-02-26T15:19:08;2.98;;;2.33;;
22318;SDS011;11327;52.334;9.506;2024-02-26T15:22:30;4.00;;;2.90;;
22318;SDS011;11327;52.334;9.506;2024-02-26T15:25:50;4.35;;;3.00;;
22318;SDS011;11327;52.334;9.506;2024-02-26T15:29:11;3.02;;;2.60;;
22318;SDS011;11327;52.334;9.506;2024-02-26T15:32:32;3.95;;;2.72;;
22318;SDS011;11327;52.334;9.506;2024-02-26T15:35:53;5.53;;;3.00;;
22318;SDS011;11327;52.334;9.506;2024-02-26T15:39:14;3.72;;;2.60;;
22318;SDS011;11327;52.334;9.506;2024-02-26T15:42:35;5.62;;;3.60;;
22318;SDS011;11327;52.334;9.506;2024-02-26T15:45:55;3.75;;;3.22;;
22318;SDS011;11327;52.334;9.506;2024-02-26T15:49:16;5.83;;;5.22;;
22318;SDS011;11327;52.334;9.506;2024-02-26T15:52:37;4.58;;;3.50;;
22318;SDS011;11327;52.334;9.506;2024-02-26T15:55:58;3.72;;;2.98;;
22318;SDS011;11327;52.334;9.506;2024-02-26T15:59:19;4.03;;;3.10;;
22318;SDS011;11327;52.334;9.506;2024-02-26T16:02:40;11.88;;;7.45;;
22318;SDS011;11327;52.334;9.506;2024-02-26T16:06:01;9.33;;;6.47;;
22318;SDS011;11327;52.334;9.506;2024-02-26T16:09:22;12.58;;;7.78;;
22318;SDS011;11327;52.334;9.506;2024-02-26T16:12:48;10.00;;;7.20;;
22318;SDS011;11327;52.334;9.506;2024-02-26T16:16:13;8.15;;;5.20;;
22318;SDS011;11327;52.334;9.506;2024-02-26T16:19:36;4.97;;;3.70;;
22318;SDS011;11327;52.334;9.506;2024-02-26T16:22:57;4.40;;;2.47;;
22318;SDS011;11327;52.334;9.506;2024-02-26T16:26:22;3.92;;;2.00;;
22318;SDS011;11327;52.334;9.506;2024-02-26T16:29:43;2.72;;;1.80;;
22318;SDS011;11327;52.334;9.506;2024-02-26T16:33:03;4.22;;;1.90;;
22318;SDS011;11327;52.334;9.506;2024-02-26T16:36:24;4.40;;;3.37;;
22318;SDS011;11327;52.334;9.506;2024-02-26T16:39:45;3.35;;;2.87;;
22318;SDS011;11327;52.334;9.506;2024-02-26T16:43:06;3.12;;;2.33;;
22318;SDS011;11327;52.334;9.506;2024-02-26T16:46:27;3.00;;;2.30;;
22318;SDS011;11327;52.334;9.506;2024-02-26T16:49:48;3.08;;;2.50;;
22318;SDS011;11327;52.334;9.506;2024-02-26T16:53:08;3.25;;;2.33;;
22318;SDS011;11327;52.334;9.506;2024-02-26T16:56:29;2.83;;;1.85;;
22318;SDS011;11327;52.334;9.506;2024-02-26T16:59:50;2.87;;;2.10;;
22318;SDS011;11327;52.334;9.506;2024-02-26T17:03:11;2.70;;;2.17;;
22318;SDS011;11327;52.334;9.506;2024-02-26T17:06:31;3.10;;;2.25;;
22318;SDS011;11327;52.334;9.506;2024-02-26T17:09:52;3.85;;;2.30;;
22318;SDS011;11327;52.334;9.506;2024-02-26T17:13:15;3.77;;;2.10;;
22318;SDS011;11327;52.334;9.506;2024-02-26T17:16:37;2.35;;;1.90;;
22318;SDS011;11327;52.334;9.506;2024-02-26T17:19:58;2.45;;;1.90;;
22318;SDS011;11327;52.334;9.506;2024-02-26T17:23:19;2.65;;;1.70;;
22318;SDS011;11327;52.334;9.506;2024-02-26T17:26:40;2.75;;;1.62;;
22318;SDS011;11327;52.334;9.506;2024-02-26T17:30:01;2.83;;;1.77;;
22318;SDS011;11327;52.334;9.506;2024-02-26T17:33:22;2.58;;;1.70;;
22318;SDS011;11327;52.334;9.506;2024-02-26T17:36:43;3.02;;;1.75;;
22318;SDS011;11327;52.334;9.506;2024-02-26T17:40:04;2.80;;;1.70;;
22318;SDS011;11327;52.334;9.506;2024-02-26T17:43:27;4.25;;;2.02;;
22318;SDS011;11327;52.334;9.506;2024-02-26T17:46:47;2.08;;;1.30;;
22318;SDS011;11327;52.334;9.506;2024-02-26T17:50:08;2.87;;;1.50;;
22318;SDS011;11327;52.334;9.506;2024-02-26T17:53:29;2.58;;;1.60;;
22318;SDS011;11327;52.334;9.506;2024-02-26T17:56:50;1.72;;;1.27;;
22318;SDS011;11327;52.334;9.506;2024-02-26T18:00:12;2.52;;;1.50;;
22318;SDS011;11327;52.334;9.506;2024-02-26T18:03:33;1.62;;;1.17;;
22318;SDS011;11327;52.334;9.506;2024-02-26T18:06:54;1.52;;;1.35;;
22318;SDS011;11327;52.334;9.506;2024-02-26T18:10:14;2.15;;;1.27;;
22318;SDS011;11327;52.334;9.506;2024-02-26T18:13:36;2.45;;;1.60;;
22318;SDS011;11327;52.334;9.506;2024-02-26T18:16:58;1.67;;;1.27;;
22318;SDS011;11327;52.334;9.506;2024-02-26T18:20:19;2.60;;;1.55;;
22318;SDS011;11327;52.334;9.506;2024-02-26T18:23:40;2.17;;;1.45;;
22318;SDS011;11327;52.334;9.506;2024-02-26T18:27:03;3.10;;;1.60;;
22318;SDS011;11327;52.334;9.506;2024-02-26T18:30:24;2.37;;;1.50;;
22318;SDS011;11327;52.334;9.506;2024-02-26T18:33:45;3.20;;;1.70;;
22318;SDS011;11327;52.334;9.506;2024-02-26T18:37:05;3.00;;;1.67;;
22318;SDS011;11327;52.334;9.506;2024-02-26T18:40:27;2.58;;;2.00;;
22318;SDS011;11327;52.334;9.506;2024-02-26T18:43:48;3.92;;;2.20;;
22318;SDS011;11327;52.334;9.506;2024-02-26T18:47:09;2.60;;;2.12;;
22318;SDS011;11327;52.334;9.506;2024-02-26T18:50:30;2.70;;;2.10;;
22318;SDS011;11327;52.334;9.506;2024-02-26T18:53:51;2.92;;;2.00;;
22318;SDS011;11327;52.334;9.506;2024-02-26T18:57:11;2.60;;;2.00;;
22318;SDS011;11327;52.334;9.506;2024-02-26T19:00:32;2.95;;;2.00;;
22318;SDS011;11327;52.334;9.506;2024-02-26T19:03:53;3.55;;;2.20;;
22318;SDS011;11327;52.334;9.506;2024-02-26T19:07:14;3.27;;;2.52;;
22318;SDS011;11327;52.334;9.506;2024-02-26T19:10:34;2.80;;;2.08;;
22318;SDS011;11327;52.334;9.506;2024-02-26T19:13:55;2.98;;;1.98;;
22318;SDS011;11327;52.334;9.506;2024-02-26T19:17:17;2.87;;;2.20;;
22318;SDS011;11327;52.334;9.506;2024-02-26T19:20:38;3.33;;;2.17;;
22318;SDS011;11327;52.334;9.506;2024-02-26T19:23:59;2.70;;;2.12;;
22318;SDS011;11327;52.334;9.506;2024-02-26T19:27:19;3.02;;;2.33;;
22318;SDS011;11327;52.334;9.506;2024-02-26T19:30:40;3.27;;;2.30;;
22318;SDS011;11327;52.334;9.506;2024-02-26T19:34:01;3.72;;;2.25;;
22318;SDS011;11327;52.334;9.506;2024-02-26T19:37:22;4.28;;;2.60;;
22318;SDS011;11327;52.334;9.506;2024-02-26T19:40:43;4.03;;;2.60;;
22318;SDS011;11327;52.334;9.506;2024-02-26T19:44:04;4.15;;;2.47;;
22318;SDS011;11327;52.334;9.506;2024-02-26T19:47:25;3.90;;;2.55;;
22318;SDS011;11327;52.334;9.506;2024-02-26T19:50:46;3.37;;;2.70;;
22318;SDS011;11327;52.334;9.506;2024-02-26T19:54:07;3.25;;;2.77;;
22318;SDS011;11327;52.334;9.506;2024-02-26T19:57:27;4.47;;;3.10;;
22318;SDS011;11327;52.334;9.506;2024-02-26T20:00:48;4.72;;;3.58;;
22318;SDS011;11327;52.334;9.506;2024-02-26T20:04:09;4.37;;;3.42;;
22318;SDS011;11327;52.334;9.506;2024-02-26T20:07:31;4.62;;;3.60;;
22318;SDS011;11327;52.334;9.506;2024-02-26T20:10:52;6.17;;;4.28;;
22318;SDS011;11327;52.334;9.506;2024-02-26T20:14:15;5.12;;;4.08;;
22318;SDS011;11327;52.334;9.506;2024-02-26T20:17:36;5.83;;;4.53;;